sensor_id;sensor_type;location;lat;lon;timestamp;P1;durP1;ratioP1;P2;durP2;ratioP2
63050;SDS011;49136;47.416;19.402;2023-05-07T00:01:48;48.20;;;22.05;;
63050;SDS011;49136;47.416;19.402;2023-05-07T00:04:13;42.13;;;20.42;;
63050;SDS011;49136;47.416;19.402;2023-05-07T00:06:39;42.08;;;20.02;;
63050;SDS011;49136;47.416;19.402;2023-05-07T00:09:05;48.42;;;20.55;;
63050;SDS011;49136;47.416;19.402;2023-05-07T00:11:30;43.60;;;20.20;;
63050;SDS011;49136;47.416;19.402;2023-05-07T00:13:56;47.85;;;21.25;;
63050;SDS011;49136;47.416;19.402;2023-05-07T00:16:22;43.45;;;21.23;;
63050;SDS011;49136;47.416;19.402;2023-05-07T00:18:47;53.42;;;22.30;;
63050;SDS011;49136;47.416;19.402;2023-05-07T00:21:13;49.00;;;21.83;;
63050;SDS011;49136;47.416;19.402;2023-05-07T00:23:38;48.13;;;22.45;;
63050;SDS011;49136;47.416;19.402;2023-05-07T00:26:04;45.95;;;22.33;;
63050;SDS011;49136;47.416;19.402;2023-05-07T00:28:29;52.83;;;23.42;;
63050;SDS011;49136;47.416;19.402;2023-05-07T00:30:55;46.75;;;20.92;;
63050;SDS011;49136;47.416;19.402;2023-05-07T00:33:20;42.83;;;21.27;;
63050;SDS011;49136;47.416;19.402;2023-05-07T00:35:47;40.45;;;20.65;;
63050;SDS011;49136;47.416;19.402;2023-05-07T00:38:13;43.47;;;20.67;;
63050;SDS011;49136;47.416;19.402;2023-05-07T00:40:38;45.28;;;21.35;;
63050;SDS011;49136;47.416;19.402;2023-05-07T00:43:03;50.40;;;23.00;;
63050;SDS011;49136;47.416;19.402;2023-05-07T00:45:29;45.33;;;21.50;;
63050;SDS011;49136;47.416;19.402;2023-05-07T00:47:55;49.10;;;21.63;;
63050;SDS011;49136;47.416;19.402;2023-05-07T00:50:23;58.83;;;23.17;;
63050;SDS011;49136;47.416;19.402;2023-05-07T00:52:49;60.13;;;20.48;;
63050;SDS011;49136;47.416;19.402;2023-05-07T00:55:14;47.88;;;21.27;;
63050;SDS011;49136;47.416;19.402;2023-05-07T00:57:40;54.10;;;23.70;;
63050;SDS011;49136;47.416;19.402;2023-05-07T01:00:07;47.95;;;22.83;;
63050;SDS011;49136;47.416;19.402;2023-05-07T01:02:34;43.90;;;21.35;;
63050;SDS011;49136;47.416;19.402;2023-05-07T01:05:00;49.00;;;21.95;;
63050;SDS011;49136;47.416;19.402;2023-05-07T01:07:27;44.25;;;21.83;;
63050;SDS011;49136;47.416;19.402;2023-05-07T01:09:54;44.08;;;20.92;;
63050;SDS011;49136;47.416;19.402;2023-05-07T01:12:20;45.70;;;22.67;;
63050;SDS011;49136;47.416;19.402;2023-05-07T01:14:46;41.65;;;20.23;;
63050;SDS011;49136;47.416;19.402;2023-05-07T01:17:13;48.58;;;21.85;;
63050;SDS011;49136;47.416;19.402;2023-05-07T01:19:39;48.17;;;23.50;;
63050;SDS011;49136;47.416;19.402;2023-05-07T01:22:07;46.45;;;22.17;;
63050;SDS011;49136;47.416;19.402;2023-05-07T01:24:35;50.15;;;22.60;;
63050;SDS011;49136;47.416;19.402;2023-05-07T01:27:02;50.92;;;23.42;;
63050;SDS011;49136;47.416;19.402;2023-05-07T01:29:27;66.38;;;23.50;;
63050;SDS011;49136;47.416;19.402;2023-05-07T01:31:53;44.83;;;21.75;;
63050;SDS011;49136;47.416;19.402;2023-05-07T01:34:21;52.00;;;23.85;;
63050;SDS011;49136;47.416;19.402;2023-05-07T01:36:47;51.75;;;23.48;;
63050;SDS011;49136;47.416;19.402;2023-05-07T01:39:13;50.45;;;21.80;;
63050;SDS011;49136;47.416;19.402;2023-05-07T01:41:40;49.92;;;23.25;;
63050;SDS011;49136;47.416;19.402;2023-05-07T01:44:06;50.47;;;22.58;;
63050;SDS011;49136;47.416;19.402;2023-05-07T01:46:33;48.08;;;22.92;;
63050;SDS011;49136;47.416;19.402;2023-05-07T01:48:59;48.45;;;22.35;;
63050;SDS011;49136;47.416;19.402;2023-05-07T01:51:25;48.95;;;22.00;;
63050;SDS011;49136;47.416;19.402;2023-05-07T01:53:51;46.63;;;22.40;;
63050;SDS011;49136;47.416;19.402;2023-05-07T01:56:18;47.30;;;22.67;;
63050;SDS011;49136;47.416;19.402;2023-05-07T01:58:45;45.08;;;21.88;;
63050;SDS011;49136;47.416;19.402;2023-05-07T02:01:12;48.03;;;22.33;;
63050;SDS011;49136;47.416;19.402;2023-05-07T02:03:38;46.13;;;22.02;;
63050;SDS011;49136;47.416;19.402;2023-05-07T02:06:03;51.17;;;22.42;;
63050;SDS011;49136;47.416;19.402;2023-05-07T02:08:29;52.47;;;23.63;;
63050;SDS011;49136;47.416;19.402;2023-05-07T02:10:55;45.90;;;22.27;;
63050;SDS011;49136;47.416;19.402;2023-05-07T02:13:20;58.35;;;23.45;;
63050;SDS011;49136;47.416;19.402;2023-05-07T02:15:47;50.83;;;22.40;;
63050;SDS011;49136;47.416;19.402;2023-05-07T02:18:15;50.72;;;23.67;;
63050;SDS011;49136;47.416;19.402;2023-05-07T02:20:41;56.92;;;23.80;;
63050;SDS011;49136;47.416;19.402;2023-05-07T02:23:07;54.38;;;22.52;;
63050;SDS011;49136;47.416;19.402;2023-05-07T02:25:33;49.90;;;22.95;;
63050;SDS011;49136;47.416;19.402;2023-05-07T02:27:58;53.55;;;23.13;;
63050;SDS011;49136;47.416;19.402;2023-05-07T02:30:24;68.53;;;26.63;;
63050;SDS011;49136;47.416;19.402;2023-05-07T02:32:50;48.33;;;24.20;;
63050;SDS011;49136;47.416;19.402;2023-05-07T02:35:15;53.35;;;22.55;;
63050;SDS011;49136;47.416;19.402;2023-05-07T02:37:41;52.30;;;24.02;;
63050;SDS011;49136;47.416;19.402;2023-05-07T02:40:06;54.60;;;21.77;;
63050;SDS011;49136;47.416;19.402;2023-05-07T02:42:32;55.40;;;23.10;;
63050;SDS011;49136;47.416;19.402;2023-05-07T02:44:58;58.75;;;23.52;;
63050;SDS011;49136;47.416;19.402;2023-05-07T02:47:23;49.60;;;22.77;;
63050;SDS011;49136;47.416;19.402;2023-05-07T02:49:52;56.15;;;23.75;;
63050;SDS011;49136;47.416;19.402;2023-05-07T02:52:18;53.80;;;23.55;;
63050;SDS011;49136;47.416;19.402;2023-05-07T02:54:43;55.63;;;26.25;;
63050;SDS011;49136;47.416;19.402;2023-05-07T02:57:09;61.85;;;24.20;;
63050;SDS011;49136;47.416;19.402;2023-05-07T02:59:34;59.60;;;25.20;;
63050;SDS011;49136;47.416;19.402;2023-05-07T03:02:00;52.50;;;23.33;;
63050;SDS011;49136;47.416;19.402;2023-05-07T03:04:25;58.20;;;24.42;;
63050;SDS011;49136;47.416;19.402;2023-05-07T03:06:50;62.85;;;25.42;;
63050;SDS011;49136;47.416;19.402;2023-05-07T03:09:16;54.38;;;25.55;;
63050;SDS011;49136;47.416;19.402;2023-05-07T03:11:41;57.72;;;25.35;;
63050;SDS011;49136;47.416;19.402;2023-05-07T03:14:07;64.03;;;26.90;;
63050;SDS011;49136;47.416;19.402;2023-05-07T03:16:32;65.93;;;26.45;;
63050;SDS011;49136;47.416;19.402;2023-05-07T03:18:58;63.50;;;27.25;;
63050;SDS011;49136;47.416;19.402;2023-05-07T03:21:23;61.38;;;25.63;;
63050;SDS011;49136;47.416;19.402;2023-05-07T03:23:49;64.60;;;26.35;;
63050;SDS011;49136;47.416;19.402;2023-05-07T03:26:14;60.22;;;25.02;;
63050;SDS011;49136;47.416;19.402;2023-05-07T03:28:40;65.05;;;26.67;;
63050;SDS011;49136;47.416;19.402;2023-05-07T03:31:05;64.35;;;27.20;;
63050;SDS011;49136;47.416;19.402;2023-05-07T03:33:33;69.45;;;27.35;;
63050;SDS011;49136;47.416;19.402;2023-05-07T03:35:59;55.67;;;24.33;;
63050;SDS011;49136;47.416;19.402;2023-05-07T03:38:25;68.75;;;27.45;;
63050;SDS011;49136;47.416;19.402;2023-05-07T03:40:50;65.35;;;28.30;;
63050;SDS011;49136;47.416;19.402;2023-05-07T03:43:16;65.38;;;25.75;;
63050;SDS011;49136;47.416;19.402;2023-05-07T03:45:41;67.82;;;28.95;;
63050;SDS011;49136;47.416;19.402;2023-05-07T03:48:07;70.35;;;28.52;;
63050;SDS011;49136;47.416;19.402;2023-05-07T03:50:32;75.75;;;32.88;;
63050;SDS011;49136;47.416;19.402;2023-05-07T03:52:58;78.22;;;31.00;;
63050;SDS011;49136;47.416;19.402;2023-05-07T03:55:23;65.25;;;28.75;;
63050;SDS011;49136;47.416;19.402;2023-05-07T03:57:49;67.68;;;28.42;;
63050;SDS011;49136;47.416;19.402;2023-05-07T04:00:14;65.15;;;28.15;;
63050;SDS011;49136;47.416;19.402;2023-05-07T04:02:40;64.47;;;27.50;;
63050;SDS011;49136;47.416;19.402;2023-05-07T04:05:05;69.10;;;27.17;;
63050;SDS011;49136;47.416;19.402;2023-05-07T04:07:31;68.95;;;29.00;;
63050;SDS011;49136;47.416;19.402;2023-05-07T04:09:56;71.28;;;30.30;;
63050;SDS011;49136;47.416;19.402;2023-05-07T04:12:22;74.85;;;30.60;;
63050;SDS011;49136;47.416;19.402;2023-05-07T04:14:47;69.13;;;29.50;;
63050;SDS011;49136;47.416;19.402;2023-05-07T04:17:13;72.75;;;30.15;;
63050;SDS011;49136;47.416;19.402;2023-05-07T04:19:38;67.25;;;29.08;;
63050;SDS011;49136;47.416;19.402;2023-05-07T04:22:03;62.08;;;25.60;;
63050;SDS011;49136;47.416;19.402;2023-05-07T04:24:32;70.50;;;28.23;;
63050;SDS011;49136;47.416;19.402;2023-05-07T04:27:00;66.13;;;28.27;;
63050;SDS011;49136;47.416;19.402;2023-05-07T04:29:26;68.20;;;28.25;;
63050;SDS011;49136;47.416;19.402;2023-05-07T04:31:52;62.05;;;27.30;;
63050;SDS011;49136;47.416;19.402;2023-05-07T04:34:17;64.28;;;27.60;;
63050;SDS011;49136;47.416;19.402;2023-05-07T04:36:43;65.63;;;25.83;;
63050;SDS011;49136;47.416;19.402;2023-05-07T04:39:08;57.97;;;23.52;;
63050;SDS011;49136;47.416;19.402;2023-05-07T04:41:35;64.63;;;25.80;;
63050;SDS011;49136;47.416;19.402;2023-05-07T04:44:01;60.00;;;24.42;;
63050;SDS011;49136;47.416;19.402;2023-05-07T04:46:29;59.38;;;24.20;;
63050;SDS011;49136;47.416;19.402;2023-05-07T04:48:55;59.83;;;24.42;;
63050;SDS011;49136;47.416;19.402;2023-05-07T04:51:20;61.15;;;25.55;;
63050;SDS011;49136;47.416;19.402;2023-05-07T04:53:46;55.67;;;25.15;;
63050;SDS011;49136;47.416;19.402;2023-05-07T04:56:12;54.63;;;24.77;;
63050;SDS011;49136;47.416;19.402;2023-05-07T04:58:38;60.95;;;24.15;;
63050;SDS011;49136;47.416;19.402;2023-05-07T05:01:03;59.17;;;25.63;;
63050;SDS011;49136;47.416;19.402;2023-05-07T05:03:29;55.42;;;23.60;;
63050;SDS011;49136;47.416;19.402;2023-05-07T05:05:55;67.80;;;26.58;;
63050;SDS011;49136;47.416;19.402;2023-05-07T05:08:22;64.70;;;25.25;;
63050;SDS011;49136;47.416;19.402;2023-05-07T05:10:47;64.10;;;24.13;;
63050;SDS011;49136;47.416;19.402;2023-05-07T05:13:14;59.25;;;24.10;;
63050;SDS011;49136;47.416;19.402;2023-05-07T05:15:40;55.22;;;24.90;;
63050;SDS011;49136;47.416;19.402;2023-05-07T05:18:05;73.43;;;23.38;;
63050;SDS011;49136;47.416;19.402;2023-05-07T05:20:31;58.50;;;25.60;;
63050;SDS011;49136;47.416;19.402;2023-05-07T05:22:56;54.47;;;24.85;;
63050;SDS011;49136;47.416;19.402;2023-05-07T05:25:22;51.55;;;22.50;;
63050;SDS011;49136;47.416;19.402;2023-05-07T05:27:47;45.38;;;22.15;;
63050;SDS011;49136;47.416;19.402;2023-05-07T05:30:13;56.20;;;22.52;;
63050;SDS011;49136;47.416;19.402;2023-05-07T05:32:38;54.63;;;22.25;;
63050;SDS011;49136;47.416;19.402;2023-05-07T05:35:04;46.63;;;20.75;;
63050;SDS011;49136;47.416;19.402;2023-05-07T05:37:30;48.50;;;22.13;;
63050;SDS011;49136;47.416;19.402;2023-05-07T05:39:56;33.22;;;16.58;;
63050;SDS011;49136;47.416;19.402;2023-05-07T05:42:21;31.08;;;16.27;;
63050;SDS011;49136;47.416;19.402;2023-05-07T05:44:47;33.78;;;16.52;;
63050;SDS011;49136;47.416;19.402;2023-05-07T05:47:13;28.92;;;14.65;;
63050;SDS011;49136;47.416;19.402;2023-05-07T05:49:38;31.15;;;14.75;;
63050;SDS011;49136;47.416;19.402;2023-05-07T05:52:04;28.00;;;14.85;;
63050;SDS011;49136;47.416;19.402;2023-05-07T05:54:29;29.75;;;14.73;;
63050;SDS011;49136;47.416;19.402;2023-05-07T05:56:55;25.75;;;13.05;;
63050;SDS011;49136;47.416;19.402;2023-05-07T05:59:20;27.73;;;13.00;;
63050;SDS011;49136;47.416;19.402;2023-05-07T06:01:46;23.95;;;13.18;;
63050;SDS011;49136;47.416;19.402;2023-05-07T06:04:11;24.48;;;11.90;;
63050;SDS011;49136;47.416;19.402;2023-05-07T06:06:37;21.92;;;12.07;;
63050;SDS011;49136;47.416;19.402;2023-05-07T06:09:02;22.58;;;12.10;;
63050;SDS011;49136;47.416;19.402;2023-05-07T06:11:28;22.92;;;11.68;;
63050;SDS011;49136;47.416;19.402;2023-05-07T06:13:53;21.52;;;11.65;;
63050;SDS011;49136;47.416;19.402;2023-05-07T06:16:19;16.67;;;10.25;;
63050;SDS011;49136;47.416;19.402;2023-05-07T06:18:45;18.35;;;10.15;;
63050;SDS011;49136;47.416;19.402;2023-05-07T06:21:11;16.90;;;9.95;;
63050;SDS011;49136;47.416;19.402;2023-05-07T06:23:38;20.85;;;9.52;;
63050;SDS011;49136;47.416;19.402;2023-05-07T06:26:05;17.17;;;9.25;;
63050;SDS011;49136;47.416;19.402;2023-05-07T06:28:31;18.30;;;11.05;;
63050;SDS011;49136;47.416;19.402;2023-05-07T06:31:17;19.80;;;11.05;;
63050;SDS011;49136;47.416;19.402;2023-05-07T06:33:47;17.45;;;10.10;;
63050;SDS011;49136;47.416;19.402;2023-05-07T06:36:13;14.20;;;9.55;;
63050;SDS011;49136;47.416;19.402;2023-05-07T06:38:39;18.65;;;11.02;;
63050;SDS011;49136;47.416;19.402;2023-05-07T06:41:05;19.20;;;10.77;;
63050;SDS011;49136;47.416;19.402;2023-05-07T06:43:31;19.42;;;11.43;;
63050;SDS011;49136;47.416;19.402;2023-05-07T06:45:56;20.70;;;11.02;;
63050;SDS011;49136;47.416;19.402;2023-05-07T06:48:22;19.95;;;10.57;;
63050;SDS011;49136;47.416;19.402;2023-05-07T06:50:47;22.33;;;11.25;;
63050;SDS011;49136;47.416;19.402;2023-05-07T06:53:15;17.70;;;10.20;;
63050;SDS011;49136;47.416;19.402;2023-05-07T06:55:40;22.10;;;9.45;;
63050;SDS011;49136;47.416;19.402;2023-05-07T06:58:06;16.90;;;8.63;;
63050;SDS011;49136;47.416;19.402;2023-05-07T07:00:32;12.38;;;7.88;;
63050;SDS011;49136;47.416;19.402;2023-05-07T07:02:57;16.67;;;10.10;;
63050;SDS011;49136;47.416;19.402;2023-05-07T07:05:24;14.07;;;9.27;;
63050;SDS011;49136;47.416;19.402;2023-05-07T07:07:49;16.08;;;9.70;;
63050;SDS011;49136;47.416;19.402;2023-05-07T07:10:21;18.58;;;8.43;;
63050;SDS011;49136;47.416;19.402;2023-05-07T07:12:47;9.90;;;6.15;;
63050;SDS011;49136;47.416;19.402;2023-05-07T07:15:13;9.98;;;7.28;;
63050;SDS011;49136;47.416;19.402;2023-05-07T07:17:39;14.55;;;8.07;;
63050;SDS011;49136;47.416;19.402;2023-05-07T07:20:04;14.32;;;8.25;;
63050;SDS011;49136;47.416;19.402;2023-05-07T07:22:30;17.10;;;8.70;;
63050;SDS011;49136;47.416;19.402;2023-05-07T07:24:56;12.43;;;8.20;;
63050;SDS011;49136;47.416;19.402;2023-05-07T07:27:21;11.20;;;7.50;;
63050;SDS011;49136;47.416;19.402;2023-05-07T07:29:47;13.40;;;7.80;;
63050;SDS011;49136;47.416;19.402;2023-05-07T07:32:12;10.52;;;6.90;;
63050;SDS011;49136;47.416;19.402;2023-05-07T07:34:38;10.63;;;7.57;;
63050;SDS011;49136;47.416;19.402;2023-05-07T07:37:03;14.07;;;7.88;;
63050;SDS011;49136;47.416;19.402;2023-05-07T07:39:34;13.20;;;7.60;;
63050;SDS011;49136;47.416;19.402;2023-05-07T07:42:00;16.83;;;8.02;;
63050;SDS011;49136;47.416;19.402;2023-05-07T07:44:26;9.95;;;6.55;;
63050;SDS011;49136;47.416;19.402;2023-05-07T07:46:53;9.15;;;5.68;;
63050;SDS011;49136;47.416;19.402;2023-05-07T07:49:18;9.23;;;4.80;;
63050;SDS011;49136;47.416;19.402;2023-05-07T07:51:44;7.82;;;5.72;;
63050;SDS011;49136;47.416;19.402;2023-05-07T07:54:09;9.48;;;6.65;;
63050;SDS011;49136;47.416;19.402;2023-05-07T07:56:35;13.68;;;7.28;;
63050;SDS011;49136;47.416;19.402;2023-05-07T07:59:00;17.40;;;8.40;;
63050;SDS011;49136;47.416;19.402;2023-05-07T08:01:26;19.92;;;8.13;;
63050;SDS011;49136;47.416;19.402;2023-05-07T08:03:52;13.82;;;7.25;;
63050;SDS011;49136;47.416;19.402;2023-05-07T08:06:17;17.45;;;7.25;;
63050;SDS011;49136;47.416;19.402;2023-05-07T08:08:43;10.27;;;5.72;;
63050;SDS011;49136;47.416;19.402;2023-05-07T08:11:09;9.27;;;5.82;;
63050;SDS011;49136;47.416;19.402;2023-05-07T08:13:35;9.57;;;7.00;;
63050;SDS011;49136;47.416;19.402;2023-05-07T08:16:01;9.68;;;5.97;;
63050;SDS011;49136;47.416;19.402;2023-05-07T08:18:26;9.05;;;6.28;;
63050;SDS011;49136;47.416;19.402;2023-05-07T08:20:54;9.18;;;6.40;;
63050;SDS011;49136;47.416;19.402;2023-05-07T08:23:19;11.30;;;5.88;;
63050;SDS011;49136;47.416;19.402;2023-05-07T08:25:45;12.52;;;7.35;;
63050;SDS011;49136;47.416;19.402;2023-05-07T08:28:10;11.70;;;7.07;;
63050;SDS011;49136;47.416;19.402;2023-05-07T08:30:36;13.48;;;8.98;;
63050;SDS011;49136;47.416;19.402;2023-05-07T08:33:01;18.88;;;8.65;;
63050;SDS011;49136;47.416;19.402;2023-05-07T08:35:27;22.02;;;9.35;;
63050;SDS011;49136;47.416;19.402;2023-05-07T08:37:53;17.13;;;9.90;;
63050;SDS011;49136;47.416;19.402;2023-05-07T08:40:18;16.08;;;9.60;;
63050;SDS011;49136;47.416;19.402;2023-05-07T08:42:44;14.00;;;9.40;;
63050;SDS011;49136;47.416;19.402;2023-05-07T08:45:11;24.77;;;11.60;;
63050;SDS011;49136;47.416;19.402;2023-05-07T08:47:43;12.25;;;7.93;;
63050;SDS011;49136;47.416;19.402;2023-05-07T08:50:10;20.05;;;9.13;;
63050;SDS011;49136;47.416;19.402;2023-05-07T08:52:36;21.90;;;9.48;;
63050;SDS011;49136;47.416;19.402;2023-05-07T08:55:02;20.23;;;10.60;;
63050;SDS011;49136;47.416;19.402;2023-05-07T08:57:28;15.35;;;8.95;;
63050;SDS011;49136;47.416;19.402;2023-05-07T08:59:53;12.10;;;8.32;;
63050;SDS011;49136;47.416;19.402;2023-05-07T09:02:19;8.75;;;6.82;;
63050;SDS011;49136;47.416;19.402;2023-05-07T09:04:45;12.18;;;7.85;;
63050;SDS011;49136;47.416;19.402;2023-05-07T09:07:10;12.15;;;7.22;;
63050;SDS011;49136;47.416;19.402;2023-05-07T09:09:35;12.88;;;7.55;;
63050;SDS011;49136;47.416;19.402;2023-05-07T09:12:02;15.15;;;7.03;;
63050;SDS011;49136;47.416;19.402;2023-05-07T09:14:28;11.25;;;7.00;;
63050;SDS011;49136;47.416;19.402;2023-05-07T09:16:55;10.93;;;7.10;;
63050;SDS011;49136;47.416;19.402;2023-05-07T09:19:25;15.35;;;9.88;;
63050;SDS011;49136;47.416;19.402;2023-05-07T09:21:58;18.85;;;10.95;;
63050;SDS011;49136;47.416;19.402;2023-05-07T09:24:25;17.45;;;10.70;;
63050;SDS011;49136;47.416;19.402;2023-05-07T09:26:50;17.38;;;10.52;;
63050;SDS011;49136;47.416;19.402;2023-05-07T09:29:16;23.08;;;11.10;;
63050;SDS011;49136;47.416;19.402;2023-05-07T09:31:42;19.48;;;10.70;;
63050;SDS011;49136;47.416;19.402;2023-05-07T09:34:08;15.55;;;9.15;;
63050;SDS011;49136;47.416;19.402;2023-05-07T09:36:33;18.27;;;10.30;;
63050;SDS011;49136;47.416;19.402;2023-05-07T09:38:59;18.70;;;11.07;;
63050;SDS011;49136;47.416;19.402;2023-05-07T09:41:25;25.63;;;10.25;;
63050;SDS011;49136;47.416;19.402;2023-05-07T09:43:54;13.15;;;8.27;;
63050;SDS011;49136;47.416;19.402;2023-05-07T09:46:20;21.50;;;8.40;;
63050;SDS011;49136;47.416;19.402;2023-05-07T09:48:52;11.82;;;8.68;;
63050;SDS011;49136;47.416;19.402;2023-05-07T09:51:24;13.23;;;8.32;;
63050;SDS011;49136;47.416;19.402;2023-05-07T09:53:53;15.75;;;8.48;;
63050;SDS011;49136;47.416;19.402;2023-05-07T09:56:19;15.02;;;7.97;;
63050;SDS011;49136;47.416;19.402;2023-05-07T09:58:46;10.82;;;7.25;;
63050;SDS011;49136;47.416;19.402;2023-05-07T10:01:12;14.57;;;6.97;;
63050;SDS011;49136;47.416;19.402;2023-05-07T10:03:39;10.00;;;7.55;;
63050;SDS011;49136;47.416;19.402;2023-05-07T10:06:08;13.35;;;8.23;;
63050;SDS011;49136;47.416;19.402;2023-05-07T10:08:34;9.80;;;6.60;;
63050;SDS011;49136;47.416;19.402;2023-05-07T10:11:01;10.73;;;6.35;;
63050;SDS011;49136;47.416;19.402;2023-05-07T10:13:27;21.13;;;8.85;;
63050;SDS011;49136;47.416;19.402;2023-05-07T10:15:52;11.63;;;7.50;;
63050;SDS011;49136;47.416;19.402;2023-05-07T10:18:19;11.48;;;7.28;;
63050;SDS011;49136;47.416;19.402;2023-05-07T10:20:48;11.00;;;7.38;;
63050;SDS011;49136;47.416;19.402;2023-05-07T10:23:19;12.80;;;7.50;;
63050;SDS011;49136;47.416;19.402;2023-05-07T10:25:48;11.27;;;7.15;;
63050;SDS011;49136;47.416;19.402;2023-05-07T10:28:14;10.82;;;7.35;;
63050;SDS011;49136;47.416;19.402;2023-05-07T10:30:48;17.60;;;7.97;;
63050;SDS011;49136;47.416;19.402;2023-05-07T10:33:19;12.52;;;7.45;;
63050;SDS011;49136;47.416;19.402;2023-05-07T10:35:48;13.60;;;7.65;;
63050;SDS011;49136;47.416;19.402;2023-05-07T10:38:14;9.38;;;6.45;;
63050;SDS011;49136;47.416;19.402;2023-05-07T10:40:39;9.52;;;6.50;;
63050;SDS011;49136;47.416;19.402;2023-05-07T10:43:06;9.52;;;7.43;;
63050;SDS011;49136;47.416;19.402;2023-05-07T10:45:32;10.20;;;6.90;;
63050;SDS011;49136;47.416;19.402;2023-05-07T10:50:37;13.07;;;6.07;;
63050;SDS011;49136;47.416;19.402;2023-05-07T10:55:50;9.60;;;5.90;;
63050;SDS011;49136;47.416;19.402;2023-05-07T10:58:26;7.13;;;5.53;;
63050;SDS011;49136;47.416;19.402;2023-05-07T11:01:01;10.25;;;5.90;;
63050;SDS011;49136;47.416;19.402;2023-05-07T11:03:27;9.52;;;5.97;;
63050;SDS011;49136;47.416;19.402;2023-05-07T11:06:09;8.80;;;6.43;;
63050;SDS011;49136;47.416;19.402;2023-05-07T11:08:54;12.82;;;6.20;;
63050;SDS011;49136;47.416;19.402;2023-05-07T11:14:13;10.95;;;7.05;;
63050;SDS011;49136;47.416;19.402;2023-05-07T11:16:39;11.05;;;5.70;;
63050;SDS011;49136;47.416;19.402;2023-05-07T11:19:06;6.05;;;5.18;;
63050;SDS011;49136;47.416;19.402;2023-05-07T11:21:35;11.23;;;5.68;;
63050;SDS011;49136;47.416;19.402;2023-05-07T11:24:02;14.73;;;7.13;;
63050;SDS011;49136;47.416;19.402;2023-05-07T11:26:30;18.88;;;6.65;;
63050;SDS011;49136;47.416;19.402;2023-05-07T11:29:09;16.23;;;9.43;;
63050;SDS011;49136;47.416;19.402;2023-05-07T11:31:36;14.15;;;7.00;;
63050;SDS011;49136;47.416;19.402;2023-05-07T11:34:02;11.50;;;7.13;;
63050;SDS011;49136;47.416;19.402;2023-05-07T11:36:30;8.38;;;6.60;;
63050;SDS011;49136;47.416;19.402;2023-05-07T11:38:57;9.18;;;6.47;;
63050;SDS011;49136;47.416;19.402;2023-05-07T11:41:34;9.15;;;6.85;;
63050;SDS011;49136;47.416;19.402;2023-05-07T11:44:01;22.15;;;7.88;;
63050;SDS011;49136;47.416;19.402;2023-05-07T11:46:27;7.97;;;6.30;;
63050;SDS011;49136;47.416;19.402;2023-05-07T11:48:53;9.40;;;6.05;;
63050;SDS011;49136;47.416;19.402;2023-05-07T11:51:23;20.20;;;6.20;;
63050;SDS011;49136;47.416;19.402;2023-05-07T11:53:51;8.90;;;5.68;;
63050;SDS011;49136;47.416;19.402;2023-05-07T11:56:17;9.32;;;5.65;;
63050;SDS011;49136;47.416;19.402;2023-05-07T11:58:44;8.70;;;5.53;;
63050;SDS011;49136;47.416;19.402;2023-05-07T12:01:11;10.18;;;5.22;;
63050;SDS011;49136;47.416;19.402;2023-05-07T12:03:40;10.77;;;5.00;;
63050;SDS011;49136;47.416;19.402;2023-05-07T12:06:13;6.63;;;5.18;;
63050;SDS011;49136;47.416;19.402;2023-05-07T12:08:40;7.18;;;4.30;;
63050;SDS011;49136;47.416;19.402;2023-05-07T12:11:07;6.95;;;5.43;;
63050;SDS011;49136;47.416;19.402;2023-05-07T12:13:34;11.77;;;5.05;;
63050;SDS011;49136;47.416;19.402;2023-05-07T12:16:00;8.05;;;4.70;;
63050;SDS011;49136;47.416;19.402;2023-05-07T12:18:28;7.05;;;4.65;;
63050;SDS011;49136;47.416;19.402;2023-05-07T12:20:54;6.65;;;5.00;;
63050;SDS011;49136;47.416;19.402;2023-05-07T12:23:20;10.82;;;5.20;;
63050;SDS011;49136;47.416;19.402;2023-05-07T12:25:47;7.45;;;4.57;;
63050;SDS011;49136;47.416;19.402;2023-05-07T12:28:13;8.25;;;4.72;;
63050;SDS011;49136;47.416;19.402;2023-05-07T12:30:40;7.35;;;5.10;;
63050;SDS011;49136;47.416;19.402;2023-05-07T12:33:07;8.45;;;5.70;;
63050;SDS011;49136;47.416;19.402;2023-05-07T12:35:37;8.57;;;5.53;;
63050;SDS011;49136;47.416;19.402;2023-05-07T12:38:07;11.55;;;6.07;;
63050;SDS011;49136;47.416;19.402;2023-05-07T12:40:41;8.80;;;5.22;;
63050;SDS011;49136;47.416;19.402;2023-05-07T12:45:51;7.97;;;5.60;;
63050;SDS011;49136;47.416;19.402;2023-05-07T12:50:51;6.20;;;5.03;;
63050;SDS011;49136;47.416;19.402;2023-05-07T12:53:19;15.75;;;5.35;;
63050;SDS011;49136;47.416;19.402;2023-05-07T12:55:47;7.95;;;4.93;;
63050;SDS011;49136;47.416;19.402;2023-05-07T12:58:15;7.45;;;4.10;;
63050;SDS011;49136;47.416;19.402;2023-05-07T13:00:44;8.98;;;5.00;;
63050;SDS011;49136;47.416;19.402;2023-05-07T13:03:12;17.35;;;6.20;;
63050;SDS011;49136;47.416;19.402;2023-05-07T13:05:45;8.10;;;4.95;;
63050;SDS011;49136;47.416;19.402;2023-05-07T13:08:10;7.13;;;4.72;;
63050;SDS011;49136;47.416;19.402;2023-05-07T13:10:36;8.48;;;5.57;;
63050;SDS011;49136;47.416;19.402;2023-05-07T13:13:01;7.88;;;5.22;;
63050;SDS011;49136;47.416;19.402;2023-05-07T13:15:27;13.27;;;5.68;;
63050;SDS011;49136;47.416;19.402;2023-05-07T13:17:53;11.52;;;6.28;;
63050;SDS011;49136;47.416;19.402;2023-05-07T13:20:18;10.65;;;6.75;;
63050;SDS011;49136;47.416;19.402;2023-05-07T13:22:44;14.40;;;6.45;;
63050;SDS011;49136;47.416;19.402;2023-05-07T13:25:09;12.55;;;7.03;;
63050;SDS011;49136;47.416;19.402;2023-05-07T13:27:34;10.63;;;7.15;;
63050;SDS011;49136;47.416;19.402;2023-05-07T13:30:02;13.38;;;8.40;;
63050;SDS011;49136;47.416;19.402;2023-05-07T13:32:28;11.23;;;6.43;;
63050;SDS011;49136;47.416;19.402;2023-05-07T13:34:55;10.20;;;6.10;;
63050;SDS011;49136;47.416;19.402;2023-05-07T13:37:20;11.30;;;5.78;;
63050;SDS011;49136;47.416;19.402;2023-05-07T13:39:46;12.77;;;5.38;;
63050;SDS011;49136;47.416;19.402;2023-05-07T13:42:11;8.48;;;5.07;;
63050;SDS011;49136;47.416;19.402;2023-05-07T13:44:36;5.63;;;4.63;;
63050;SDS011;49136;47.416;19.402;2023-05-07T13:47:02;10.52;;;4.82;;
63050;SDS011;49136;47.416;19.402;2023-05-07T13:49:27;9.10;;;4.18;;
63050;SDS011;49136;47.416;19.402;2023-05-07T13:51:53;5.55;;;3.80;;
63050;SDS011;49136;47.416;19.402;2023-05-07T13:54:18;5.32;;;3.80;;
63050;SDS011;49136;47.416;19.402;2023-05-07T13:56:44;6.05;;;4.05;;
63050;SDS011;49136;47.416;19.402;2023-05-07T13:59:09;6.63;;;3.90;;
63050;SDS011;49136;47.416;19.402;2023-05-07T14:01:35;6.93;;;3.72;;
63050;SDS011;49136;47.416;19.402;2023-05-07T14:04:00;6.30;;;4.47;;
63050;SDS011;49136;47.416;19.402;2023-05-07T14:06:25;6.45;;;4.10;;
63050;SDS011;49136;47.416;19.402;2023-05-07T14:08:51;7.70;;;4.95;;
63050;SDS011;49136;47.416;19.402;2023-05-07T14:11:16;6.28;;;4.35;;
63050;SDS011;49136;47.416;19.402;2023-05-07T14:13:42;8.25;;;4.40;;
63050;SDS011;49136;47.416;19.402;2023-05-07T14:16:08;9.20;;;4.70;;
63050;SDS011;49136;47.416;19.402;2023-05-07T14:18:33;6.90;;;4.18;;
63050;SDS011;49136;47.416;19.402;2023-05-07T14:20:59;6.85;;;4.65;;
63050;SDS011;49136;47.416;19.402;2023-05-07T14:23:25;7.55;;;4.70;;
63050;SDS011;49136;47.416;19.402;2023-05-07T14:25:51;6.07;;;4.80;;
63050;SDS011;49136;47.416;19.402;2023-05-07T14:28:18;7.22;;;4.65;;